createdAt,value
2018-03-02T00:00:29.080Z,16.87
2018-03-02T00:02:56.609Z,17.85
2018-03-02T00:05:24.133Z,17.58
2018-03-02T00:07:51.822Z,17.27
2018-03-02T00:10:19.387Z,16.50
2018-03-02T00:12:46.946Z,16.08
2018-03-02T00:15:14.602Z,18.90
2018-03-02T00:17:42.136Z,17.45
2018-03-02T00:20:09.716Z,16.30
2018-03-02T00:22:37.377Z,15.52
2018-03-02T00:25:05.008Z,16.55
2018-03-02T00:27:32.581Z,17.05
2018-03-02T00:30:00.220Z,15.57
2018-03-02T00:32:27.772Z,15.85
2018-03-02T00:34:55.304Z,16.62
2018-03-02T00:37:22.833Z,15.60
2018-03-02T00:39:50.365Z,16.55
2018-03-02T00:42:17.873Z,16.20
2018-03-02T00:44:45.386Z,17.90
2018-03-02T00:47:12.932Z,17.27
2018-03-02T00:49:40.500Z,16.50
2018-03-02T00:52:08.076Z,16.70
2018-03-02T00:54:35.837Z,16.25
2018-03-02T00:57:03.382Z,17.02
2018-03-02T00:59:30.916Z,17.17
2018-03-02T01:01:58.535Z,17.35
2018-03-02T01:04:26.066Z,17.75
2018-03-02T01:06:53.657Z,17.48
2018-03-02T01:09:21.223Z,18.05
2018-03-02T01:11:48.756Z,18.12
2018-03-02T01:14:16.265Z,18.33
2018-03-02T01:16:43.824Z,17.40
2018-03-02T01:19:11.324Z,16.02
2018-03-02T01:21:38.851Z,18.27
2018-03-02T01:24:06.381Z,16.80
2018-03-02T01:26:33.951Z,17.08
2018-03-02T01:29:01.605Z,17.70
2018-03-02T01:31:29.219Z,17.00
2018-03-02T01:33:56.746Z,17.73
2018-03-02T01:36:24.380Z,17.10
2018-03-02T01:38:51.953Z,14.60
2018-03-02T01:41:19.486Z,17.45
2018-03-02T01:43:47.017Z,16.25
2018-03-02T01:46:14.553Z,17.90
2018-03-02T01:48:42.078Z,16.35
2018-03-02T01:51:09.616Z,16.48
2018-03-02T01:53:37.294Z,19.30
2018-03-02T01:56:04.897Z,16.87
2018-03-02T01:58:32.464Z,18.10
2018-03-02T02:01:00.078Z,17.98
2018-03-02T02:03:27.650Z,17.35
2018-03-02T02:05:55.254Z,17.92
2018-03-02T02:08:22.846Z,17.90
2018-03-02T02:10:50.376Z,18.92
2018-03-02T02:13:17.903Z,20.77
2018-03-02T02:15:45.457Z,19.35
2018-03-02T02:18:12.974Z,20.20
2018-03-02T02:20:40.491Z,17.73
2018-03-02T02:23:08.053Z,17.60
2018-03-02T02:25:35.577Z,17.58
2018-03-02T02:28:03.109Z,17.30
2018-03-02T02:30:30.642Z,18.20
2018-03-02T02:32:58.171Z,20.12
2018-03-02T02:35:25.695Z,18.17
2018-03-02T02:37:53.253Z,18.33
2018-03-02T02:40:20.829Z,17.15
2018-03-02T02:42:48.310Z,17.50
2018-03-02T02:45:15.839Z,17.35
2018-03-02T02:47:43.370Z,20.20
2018-03-02T02:50:10.939Z,19.15
2018-03-02T02:52:38.482Z,21.08
2018-03-02T02:55:06.066Z,22.40
2018-03-02T02:57:33.593Z,21.35
2018-03-02T03:00:01.213Z,21.27
2018-03-02T03:02:28.778Z,20.62
2018-03-02T03:04:56.286Z,22.17
2018-03-02T03:07:23.813Z,21.92
2018-03-02T03:09:51.409Z,21.58
2018-03-02T03:12:18.962Z,22.40
2018-03-02T03:14:46.481Z,20.35
2018-03-02T03:17:14.077Z,23.12
2018-03-02T03:19:41.641Z,22.15
2018-03-02T03:22:09.160Z,21.23
2018-03-02T03:24:36.825Z,22.02
2018-03-02T03:27:04.342Z,19.85
2018-03-02T03:29:31.918Z,20.23
2018-03-02T03:31:59.458Z,20.58
2018-03-02T03:34:26.974Z,19.58
2018-03-02T03:36:54.487Z,20.58
2018-03-02T03:39:22.107Z,20.52
2018-03-02T03:41:49.678Z,19.23
2018-03-02T03:44:17.233Z,18.87
2018-03-02T03:46:44.774Z,18.55
2018-03-02T03:49:12.337Z,19.17
2018-03-02T03:51:39.881Z,18.95
2018-03-02T03:54:07.480Z,19.08
2018-03-02T03:56:35.025Z,19.00
2018-03-02T03:59:02.603Z,20.62
2018-03-02T04:01:30.189Z,16.92
2018-03-02T04:03:57.709Z,20.17
2018-03-02T04:06:25.245Z,16.90
2018-03-02T04:08:52.796Z,17.52
2018-03-02T04:11:20.312Z,16.27
2018-03-02T04:13:47.825Z,16.12
2018-03-02T04:16:15.383Z,17.80
2018-03-02T04:18:42.905Z,15.57
2018-03-02T04:21:10.417Z,17.42
2018-03-02T04:23:37.959Z,16.58
2018-03-02T04:26:05.562Z,17.15
2018-03-02T04:28:33.096Z,19.23
2018-03-02T04:31:00.672Z,16.37
2018-03-02T04:33:28.197Z,18.40
2018-03-02T04:35:55.705Z,16.70
2018-03-02T04:38:23.342Z,17.48
2018-03-02T04:40:50.862Z,18.60
2018-03-02T04:43:18.518Z,18.33
2018-03-02T04:45:46.092Z,20.52
2018-03-02T04:48:13.665Z,20.88
2018-03-02T04:50:41.201Z,18.42
2018-03-02T04:53:08.757Z,19.08
2018-03-02T04:55:36.293Z,22.20
2018-03-02T04:58:03.895Z,22.73
2018-03-02T05:00:31.489Z,24.98
2018-03-02T05:02:59.040Z,21.75
2018-03-02T05:05:26.674Z,24.75
2018-03-02T05:07:54.269Z,28.00
2018-03-02T05:10:21.838Z,26.10
2018-03-02T05:12:49.421Z,28.40
2018-03-02T05:15:17.023Z,28.48
2018-03-02T05:17:44.563Z,36.30
2018-03-02T05:20:12.191Z,46.42
2018-03-02T05:22:39.724Z,34.58
2018-03-02T05:25:07.255Z,37.15
2018-03-02T05:27:34.834Z,36.72
2018-03-02T05:30:02.452Z,14.30
2018-03-02T05:32:30.047Z,37.97
2018-03-02T05:34:57.565Z,32.65
2018-03-02T05:37:25.095Z,29.65
2018-03-02T05:39:52.669Z,31.23
2018-03-02T05:42:20.693Z,32.60
2018-03-02T05:44:48.301Z,33.28
2018-03-02T05:47:16.074Z,34.75
2018-03-02T05:49:43.616Z,37.42
2018-03-02T05:52:11.192Z,39.53
2018-03-02T05:54:38.728Z,39.92
2018-03-02T05:57:06.286Z,33.95
2018-03-02T05:59:33.886Z,27.15
2018-03-02T06:02:01.457Z,28.70
2018-03-02T06:04:28.989Z,29.37
2018-03-02T06:06:56.513Z,26.37
2018-03-02T06:09:24.050Z,24.23
2018-03-02T06:11:51.636Z,37.38
2018-03-02T06:14:19.149Z,30.05
2018-03-02T06:16:46.722Z,24.48
2018-03-02T06:19:14.287Z,29.15
2018-03-02T06:21:41.823Z,29.35
2018-03-02T06:24:09.645Z,28.35
2018-03-02T06:26:37.289Z,26.77
2018-03-02T06:29:04.819Z,29.48
2018-03-02T06:31:32.423Z,25.30
2018-03-02T06:33:59.995Z,25.20
2018-03-02T06:36:27.529Z,26.08
2018-03-02T06:38:55.202Z,27.40
2018-03-02T06:41:22.770Z,28.45
2018-03-02T06:43:50.328Z,35.88
2018-03-02T06:46:17.984Z,27.75
2018-03-02T06:48:45.575Z,26.70
2018-03-02T06:51:13.153Z,28.90
2018-03-02T06:53:40.725Z,28.15
2018-03-02T06:56:08.242Z,30.83
2018-03-02T06:58:35.937Z,29.02
2018-03-02T07:01:03.541Z,28.90
2018-03-02T07:03:31.061Z,31.45
2018-03-02T07:05:58.627Z,30.35
2018-03-02T07:08:26.287Z,33.40
2018-03-02T07:10:53.815Z,36.30
2018-03-02T07:13:21.474Z,40.67
2018-03-02T07:15:49.141Z,39.15
2018-03-02T07:18:16.661Z,42.45
2018-03-02T07:20:44.250Z,43.15
2018-03-02T07:23:11.789Z,41.10
2018-03-02T07:25:39.349Z,45.20
2018-03-02T07:28:06.978Z,43.35
2018-03-02T07:30:34.526Z,44.65
2018-03-02T07:33:02.106Z,48.55
2018-03-02T07:35:29.682Z,48.53
2018-03-02T07:37:57.281Z,49.83
2018-03-02T07:40:24.806Z,57.33
2018-03-02T07:42:52.428Z,59.15
2018-03-02T07:45:20.248Z,58.58
2018-03-02T07:47:48.067Z,59.53
2018-03-02T07:50:15.633Z,57.00
2018-03-02T07:52:43.244Z,62.42
2018-03-02T07:55:10.761Z,57.97
2018-03-02T07:57:38.305Z,60.58
2018-03-02T08:00:06.512Z,60.50
2018-03-02T08:02:34.052Z,53.03
2018-03-02T08:05:01.639Z,47.38
2018-03-02T08:07:29.226Z,43.15
2018-03-02T08:09:56.788Z,42.40
2018-03-02T08:12:24.324Z,41.47
2018-03-02T08:14:51.864Z,36.28
2018-03-02T08:17:19.457Z,33.78
2018-03-02T08:19:47.047Z,36.50
2018-03-02T08:22:14.610Z,33.75
2018-03-02T08:24:42.169Z,32.80
2018-03-02T08:27:09.695Z,32.63
2018-03-02T08:29:37.268Z,31.83
2018-03-02T08:32:04.818Z,35.83
2018-03-02T08:34:32.356Z,32.38
2018-03-02T08:36:59.889Z,31.17
2018-03-02T08:39:27.608Z,32.73
2018-03-02T08:41:55.233Z,31.60
2018-03-02T08:44:22.787Z,29.87
2018-03-02T08:46:50.408Z,34.30
2018-03-02T08:49:17.924Z,30.73
2018-03-02T08:51:45.506Z,33.90
2018-03-02T08:54:13.131Z,34.63
2018-03-02T08:56:40.710Z,34.57
2018-03-02T08:59:08.229Z,34.37
2018-03-02T09:01:35.805Z,36.70
2018-03-02T09:04:03.336Z,36.10
2018-03-02T09:06:30.912Z,38.27
2018-03-02T09:08:58.485Z,36.13
2018-03-02T09:11:26.068Z,32.10
2018-03-02T09:13:53.624Z,33.00
2018-03-02T09:16:21.206Z,32.63
2018-03-02T09:18:48.756Z,33.40
2018-03-02T09:21:16.316Z,33.73
2018-03-02T09:23:43.855Z,31.43
2018-03-02T09:26:11.433Z,31.13
2018-03-02T09:28:38.965Z,24.23
2018-03-02T09:31:06.563Z,27.40
2018-03-02T09:33:34.144Z,25.67
2018-03-02T09:36:01.709Z,27.57
2018-03-02T09:38:29.338Z,27.47
2018-03-02T09:40:56.865Z,29.13
2018-03-02T09:43:24.406Z,28.30
2018-03-02T09:45:51.973Z,30.23
2018-03-02T09:48:19.590Z,30.70
2018-03-02T09:50:47.207Z,24.40
2018-03-02T09:53:14.810Z,28.70
2018-03-02T09:55:42.370Z,31.73
2018-03-02T09:58:09.932Z,31.03
2018-03-02T10:00:37.504Z,36.97
2018-03-02T10:03:05.231Z,36.87
2018-03-02T10:05:32.825Z,37.10
2018-03-02T10:08:00.433Z,36.23
2018-03-02T10:10:28.036Z,35.13
2018-03-02T10:12:56.432Z,37.40
2018-03-02T10:15:24.939Z,32.80
2018-03-02T10:17:52.834Z,38.27
2018-03-02T10:20:20.434Z,35.43
2018-03-02T10:22:48.027Z,38.73
2018-03-02T10:25:15.595Z,37.77
2018-03-02T10:27:43.117Z,37.40
2018-03-02T10:30:10.770Z,35.53
2018-03-02T10:32:38.311Z,35.60
2018-03-02T10:35:05.839Z,35.97
2018-03-02T10:37:33.393Z,37.97
2018-03-02T10:40:01.089Z,37.40
2018-03-02T10:42:28.722Z,32.93
2018-03-02T10:44:56.377Z,36.77
2018-03-02T10:47:23.935Z,34.30
2018-03-02T10:49:51.508Z,36.33
2018-03-02T10:52:19.133Z,38.53
2018-03-02T10:54:46.671Z,34.00
2018-03-02T10:57:14.193Z,35.57
2018-03-02T10:59:41.809Z,35.90
2018-03-02T11:02:14.965Z,35.37
2018-03-02T11:04:47.405Z,32.00
2018-03-02T11:07:15.077Z,36.10
2018-03-02T11:09:42.796Z,34.53
2018-03-02T11:12:10.349Z,37.30
2018-03-02T11:14:37.938Z,33.43
2018-03-02T11:17:05.498Z,33.30
2018-03-02T11:19:33.058Z,30.40
2018-03-02T11:22:00.602Z,30.87
2018-03-02T11:24:28.181Z,34.93
2018-03-02T11:26:55.748Z,32.40
2018-03-02T11:29:23.334Z,31.07
2018-03-02T11:31:50.918Z,31.70
2018-03-02T11:34:18.525Z,32.23
2018-03-02T11:36:46.108Z,33.83
2018-03-02T11:39:13.717Z,34.37
2018-03-02T11:41:41.256Z,33.20
2018-03-02T11:44:08.800Z,33.57
2018-03-02T11:46:36.333Z,31.73
2018-03-02T11:49:03.935Z,34.43
2018-03-02T11:51:31.526Z,37.00
2018-03-02T11:53:59.116Z,35.73
2018-03-02T11:56:26.694Z,36.40
2018-03-02T11:58:54.336Z,34.87
2018-03-02T12:01:21.977Z,32.20
2018-03-02T12:03:49.503Z,34.63
2018-03-02T12:06:17.082Z,34.27
2018-03-02T12:08:44.630Z,33.30
2018-03-02T12:11:12.214Z,34.80
2018-03-02T12:13:39.778Z,37.20
2018-03-02T12:16:07.336Z,35.73
2018-03-02T12:18:34.965Z,36.13
2018-03-02T12:21:03.125Z,36.37
2018-03-02T12:23:30.665Z,36.50
2018-03-02T12:25:58.281Z,38.10
2018-03-02T12:28:26.767Z,38.73
2018-03-02T12:30:55.372Z,39.20
2018-03-02T12:33:22.937Z,40.77
2018-03-02T12:35:50.490Z,42.27
2018-03-02T12:38:18.198Z,40.93
2018-03-02T12:40:45.784Z,41.77
2018-03-02T12:43:13.414Z,44.87
2018-03-02T12:45:41.095Z,43.97
2018-03-02T12:48:08.719Z,39.70
2018-03-02T12:50:36.313Z,40.80
2018-03-02T12:53:03.887Z,41.10
2018-03-02T12:55:31.542Z,41.50
2018-03-02T12:57:59.235Z,40.67
2018-03-02T13:00:26.797Z,39.70
2018-03-02T13:02:54.578Z,39.30
2018-03-02T13:05:22.171Z,40.97
2018-03-02T13:07:50.004Z,39.43
2018-03-02T13:10:17.894Z,37.23
2018-03-02T13:12:45.479Z,39.60
2018-03-02T13:15:13.052Z,39.60
2018-03-02T13:17:40.610Z,38.47
2018-03-02T13:20:08.573Z,42.40
2018-03-02T13:22:41.321Z,40.57
2018-03-02T13:25:08.886Z,39.47
2018-03-02T13:27:48.277Z,40.47
2018-03-02T13:30:16.852Z,40.53
2018-03-02T13:33:05.098Z,40.33
2018-03-02T13:35:32.677Z,40.93
2018-03-02T13:38:00.260Z,44.93
2018-03-02T13:40:39.473Z,42.80
2018-03-02T13:43:07.031Z,41.80
2018-03-02T13:45:34.569Z,41.17
2018-03-02T13:48:31.890Z,42.23
2018-03-02T13:50:59.424Z,41.07
2018-03-02T13:53:27.901Z,42.30
2018-03-02T13:55:55.533Z,41.27
2018-03-02T13:58:23.074Z,43.77
2018-03-02T14:00:50.660Z,40.67
2018-03-02T14:03:29.830Z,40.97
2018-03-02T14:05:57.429Z,42.43
2018-03-02T14:08:25.774Z,40.37
2018-03-02T14:10:53.551Z,42.80
2018-03-02T14:13:21.205Z,41.73
2018-03-02T14:15:48.743Z,41.53
2018-03-02T14:18:16.300Z,44.57
2018-03-02T14:20:43.902Z,45.03
2018-03-02T14:23:11.454Z,42.87
2018-03-02T14:25:39.153Z,45.67
2018-03-02T14:28:07.694Z,42.67
2018-03-02T14:30:35.273Z,45.37
2018-03-02T14:33:03.765Z,47.40
2018-03-02T14:35:31.310Z,49.63
2018-03-02T14:37:58.933Z,48.50
2018-03-02T14:40:26.496Z,48.30
2018-03-02T14:42:54.096Z,51.67
2018-03-02T14:45:21.665Z,56.23
2018-03-02T14:47:49.200Z,48.83
2018-03-02T14:50:16.842Z,52.73
2018-03-02T14:52:44.420Z,52.87
2018-03-02T14:55:11.968Z,53.10
2018-03-02T14:57:39.628Z,56.73
2018-03-02T15:00:08.339Z,56.93
2018-03-02T15:02:35.897Z,56.73
2018-03-02T15:05:03.429Z,53.40
2018-03-02T15:07:30.994Z,54.77
2018-03-02T15:09:58.549Z,55.10
2018-03-02T15:12:26.356Z,55.20
2018-03-02T15:14:54.007Z,54.80
2018-03-02T15:17:21.605Z,57.30
2018-03-02T15:19:49.188Z,51.67
2018-03-02T15:22:16.760Z,53.60
2018-03-02T15:24:44.342Z,56.57
2018-03-02T15:27:11.913Z,55.30
2018-03-02T15:29:39.490Z,60.20
2018-03-02T15:32:07.102Z,61.73
2018-03-02T15:34:34.621Z,58.57
2018-03-02T15:37:02.154Z,58.40
2018-03-02T15:39:29.712Z,60.93
2018-03-02T15:41:57.303Z,62.97
2018-03-02T15:44:24.889Z,64.20
2018-03-02T15:46:52.447Z,73.27
2018-03-02T15:49:20.054Z,79.60
2018-03-02T15:51:47.657Z,76.90
2018-03-02T15:54:15.298Z,75.70
2018-03-02T15:56:42.894Z,67.23
2018-03-02T15:59:10.526Z,64.33
2018-03-02T16:01:38.254Z,67.57
2018-03-02T16:04:05.893Z,59.70
2018-03-02T16:06:33.463Z,60.53
2018-03-02T16:09:01.122Z,64.60
2018-03-02T16:11:28.706Z,74.57
2018-03-02T16:13:56.280Z,79.10
2018-03-02T16:16:23.895Z,88.30
2018-03-02T16:18:51.547Z,99.70
2018-03-02T16:21:19.173Z,103.77
2018-03-02T16:23:46.759Z,108.80
2018-03-02T16:26:14.329Z,100.97
2018-03-02T16:28:41.896Z,98.20
2018-03-02T16:31:09.594Z,96.43
2018-03-02T16:33:37.175Z,104.03
2018-03-02T16:36:04.746Z,93.27
2018-03-02T16:38:32.375Z,102.03
2018-03-02T16:40:59.984Z,101.77
2018-03-02T16:43:27.588Z,108.47
2018-03-02T16:45:55.207Z,95.60
2018-03-02T16:48:22.779Z,92.23
2018-03-02T16:50:50.376Z,85.37
2018-03-02T16:53:17.982Z,79.33
2018-03-02T16:55:45.534Z,84.20
2018-03-02T16:58:13.146Z,80.40
2018-03-02T17:00:40.753Z,75.27
2018-03-02T17:03:08.341Z,67.50
2018-03-02T17:05:36.010Z,62.22
2018-03-02T17:08:03.620Z,66.87
2018-03-02T17:10:31.217Z,59.93
2018-03-02T17:12:58.784Z,60.00
2018-03-02T17:15:26.377Z,57.27
2018-03-02T17:17:53.971Z,55.30
2018-03-02T17:20:21.600Z,52.80
2018-03-02T17:22:49.204Z,48.83
2018-03-02T17:25:17.787Z,51.15
2018-03-02T17:27:45.381Z,53.53
2018-03-02T17:30:13.044Z,55.40
2018-03-02T17:32:40.652Z,56.50
2018-03-02T17:35:08.325Z,57.10
2018-03-02T17:37:35.908Z,58.45
2018-03-02T17:40:03.515Z,54.00
2018-03-02T17:42:31.106Z,53.28
2018-03-02T17:44:58.747Z,62.80
2018-03-02T17:47:26.415Z,63.57
2018-03-02T17:49:53.986Z,59.63
2018-03-02T17:52:21.593Z,64.32
2018-03-02T17:54:49.187Z,69.80
2018-03-02T17:57:17.017Z,63.10
2018-03-02T17:59:44.642Z,65.90
2018-03-02T18:02:12.209Z,66.80
2018-03-02T18:04:40.467Z,63.57
2018-03-02T18:07:08.023Z,65.87
2018-03-02T18:09:35.599Z,66.27
2018-03-02T18:12:03.192Z,61.10
2018-03-02T18:14:30.762Z,73.70
2018-03-02T18:16:58.347Z,66.27
2018-03-02T18:19:25.910Z,63.87
2018-03-02T18:21:53.491Z,64.17
2018-03-02T18:24:21.056Z,56.97
2018-03-02T18:26:48.589Z,58.57
2018-03-02T18:29:16.267Z,69.17
2018-03-02T18:31:43.834Z,57.23
2018-03-02T18:34:11.447Z,65.40
2018-03-02T18:36:39.557Z,76.13
2018-03-02T18:39:07.149Z,70.60
2018-03-02T18:41:34.712Z,76.80
2018-03-02T18:44:02.297Z,68.77
2018-03-02T18:46:29.868Z,65.70
2018-03-02T18:48:57.473Z,60.67
2018-03-02T18:51:25.084Z,55.67
2018-03-02T18:53:53.489Z,51.37
2018-03-02T18:56:22.189Z,53.80
2018-03-02T18:58:49.737Z,52.50
2018-03-02T19:01:17.451Z,61.90
2018-03-02T19:03:45.008Z,57.43
2018-03-02T19:06:12.758Z,54.60
2018-03-02T19:08:40.330Z,53.60
2018-03-02T19:11:07.963Z,52.03
2018-03-02T19:13:35.549Z,56.57
2018-03-02T19:16:03.108Z,51.97
2018-03-02T19:18:30.684Z,55.50
2018-03-02T19:20:58.597Z,53.93
2018-03-02T19:23:26.287Z,56.30
2018-03-02T19:25:53.896Z,57.03
2018-03-02T19:28:21.539Z,52.80
2018-03-02T19:30:49.229Z,52.27
2018-03-02T19:33:17.786Z,53.27
2018-03-02T19:35:45.486Z,53.00
2018-03-02T19:38:13.191Z,59.30
2018-03-02T19:40:40.914Z,55.73
2018-03-02T19:43:08.911Z,53.80
2018-03-02T19:45:36.610Z,54.60
2018-03-02T19:48:04.270Z,61.87
2018-03-02T19:50:31.985Z,64.10
2018-03-02T19:52:59.647Z,65.57
2018-03-02T19:55:28.080Z,64.60
2018-03-02T19:57:55.742Z,66.37
2018-03-02T20:00:23.396Z,73.97
2018-03-02T20:02:51.029Z,71.40
2018-03-02T20:05:18.677Z,67.20
2018-03-02T20:07:46.510Z,72.20
2018-03-02T20:10:14.102Z,71.47
2018-03-02T20:12:41.700Z,69.13
2018-03-02T20:15:09.331Z,71.90
2018-03-02T20:17:36.918Z,74.50
2018-03-02T20:20:04.537Z,69.03
2018-03-02T20:22:32.175Z,70.87
2018-03-02T20:24:59.753Z,74.73
2018-03-02T20:27:27.400Z,74.83
2018-03-02T20:29:55.065Z,66.03
2018-03-02T20:32:22.737Z,65.03
2018-03-02T20:34:50.334Z,70.60
2018-03-02T20:37:17.945Z,67.22
2018-03-02T20:39:45.574Z,65.00
2018-03-02T20:42:13.165Z,65.40
2018-03-02T20:44:40.727Z,61.77
2018-03-02T20:47:08.283Z,74.00
2018-03-02T20:49:35.847Z,72.87
2018-03-02T20:52:03.425Z,68.93
2018-03-02T20:54:31.029Z,62.78
2018-03-02T20:56:58.599Z,64.57
2018-03-02T20:59:26.176Z,69.12
2018-03-02T21:01:53.737Z,62.67
2018-03-02T21:04:21.300Z,64.80
2018-03-02T21:06:48.952Z,67.47
2018-03-02T21:09:16.617Z,63.70
2018-03-02T21:11:44.174Z,67.27
2018-03-02T21:14:11.684Z,64.07
2018-03-02T21:16:40.006Z,67.70
2018-03-02T21:19:07.537Z,65.30
2018-03-02T21:21:35.052Z,64.57
2018-03-02T21:24:02.585Z,56.33
2018-03-02T21:26:30.180Z,56.77
2018-03-02T21:28:57.882Z,53.30
2018-03-02T21:31:25.425Z,60.43
2018-03-02T21:33:53.058Z,61.22
2018-03-02T21:36:20.812Z,55.40
2018-03-02T21:38:48.393Z,56.27
2018-03-02T21:41:15.940Z,64.40
2018-03-02T21:43:43.525Z,63.30
2018-03-02T21:46:11.017Z,65.43
2018-03-02T21:48:38.552Z,65.10
2018-03-02T21:51:06.124Z,70.07
2018-03-02T21:53:33.661Z,65.87
2018-03-02T21:56:01.173Z,65.20
2018-03-02T21:58:28.731Z,67.80
2018-03-02T22:00:56.296Z,72.55
2018-03-02T22:03:23.863Z,66.87
2018-03-02T22:05:51.381Z,90.50
2018-03-02T22:08:19.057Z,60.53
2018-03-02T22:10:46.634Z,67.40
2018-03-02T22:13:14.162Z,66.97
2018-03-02T22:15:41.766Z,67.70
2018-03-02T22:18:09.302Z,62.90
2018-03-02T22:20:36.813Z,63.03
2018-03-02T22:23:04.397Z,63.00
2018-03-02T22:25:32.076Z,63.87
2018-03-02T22:27:59.660Z,55.27
2018-03-02T22:30:27.274Z,54.47
2018-03-02T22:32:54.791Z,55.80
2018-03-02T22:35:22.372Z,52.75
2018-03-02T22:37:49.927Z,51.72
2018-03-02T22:40:17.465Z,48.97
2018-03-02T22:42:45.010Z,45.47
2018-03-02T22:45:12.551Z,49.60
2018-03-02T22:47:40.107Z,52.50
2018-03-02T22:50:07.632Z,51.90
2018-03-02T22:52:35.184Z,51.27
2018-03-02T22:55:02.776Z,49.90
2018-03-02T22:57:30.312Z,50.00
2018-03-02T22:59:57.905Z,47.00
2018-03-02T23:02:25.458Z,48.27
2018-03-02T23:04:53.099Z,45.57
2018-03-02T23:07:20.770Z,43.97
2018-03-02T23:09:48.388Z,41.00
2018-03-02T23:12:15.926Z,44.23
2018-03-02T23:14:43.476Z,42.80
2018-03-02T23:17:11.201Z,41.03
2018-03-02T23:19:38.731Z,39.70
2018-03-02T23:22:06.271Z,36.40
2018-03-02T23:24:33.824Z,35.80
2018-03-02T23:27:01.538Z,34.63
2018-03-02T23:29:29.115Z,36.43
2018-03-02T23:31:56.902Z,31.47
2018-03-02T23:34:24.541Z,26.42
2018-03-02T23:36:52.052Z,26.43
2018-03-02T23:39:19.602Z,26.60
2018-03-02T23:41:47.155Z,28.23
2018-03-02T23:44:14.788Z,24.17
2018-03-02T23:46:42.373Z,26.60
2018-03-02T23:49:09.936Z,25.10
2018-03-02T23:51:37.448Z,25.43
2018-03-02T23:54:05.010Z,22.47
2018-03-02T23:56:32.547Z,21.17
2018-03-02T23:59:00.093Z,19.58
